Time;durP1;ratioP1;P1;durP2;ratioP2;P2;SDS_P1;SDS_P2;PMS_P1;PMS_P2;Temp;Humidity;BMP_temperature;BMP_pressure;BME280_temperature;BME280_humidity;BME280_pressure;Samples;Min_cycle;Max_cycle;Signal;HPM_P1;HPM_P2
2022/06/11 00:00:58;;;;;;;9.83;4.30;;;21.30;92.00;;;;;;4990278;28;21095;-66
2022/06/11 00:03:24;;;;;;;6.83;4.50;;;21.30;92.30;;;;;;5000589;28;20558;-66
2022/06/11 00:05:50;;;;;;;5.50;4.63;;;21.30;92.40;;;;;;5003301;28;20669;-66
2022/06/11 00:08:16;;;;;;;5.50;4.30;;;21.30;92.70;;;;;;5002884;28;20274;-66
2022/06/11 00:10:48;;;;;;;8.40;5.57;;;21.30;93.40;;;;;;5072102;28;21087;-68
2022/06/11 00:13:15;;;;;;;8.20;4.37;;;21.20;93.80;;;;;;5051935;28;20487;-68
2022/06/11 00:15:42;;;;;;;4.83;4.40;;;21.30;94.00;;;;;;5049759;28;20669;-68
2022/06/11 00:18:08;;;;;;;5.37;4.40;;;21.20;94.20;;;;;;5049218;28;20462;-67
2022/06/11 00:20:33;;;;;;;5.17;4.50;;;21.20;94.80;;;;;;5049232;28;20437;-67
2022/06/11 00:22:59;;;;;;;6.20;4.87;;;21.10;94.60;;;;;;5050100;28;21037;-68
2022/06/11 00:25:25;;;;;;;7.23;5.07;;;21.10;95.20;;;;;;5050343;28;20270;-68
2022/06/11 00:27:51;;;;;;;7.87;4.40;;;21.10;95.60;;;;;;5048361;28;20421;-68
2022/06/11 00:30:18;;;;;;;7.00;4.60;;;21.00;96.00;;;;;;5052728;28;20481;-68
2022/06/11 00:32:45;;;;;;;6.97;4.70;;;21.00;96.70;;;;;;5047908;28;20559;-67
2022/06/11 00:35:12;;;;;;;5.97;5.20;;;21.00;97.30;;;;;;5048961;28;20442;-66
2022/06/11 00:37:38;;;;;;;6.20;4.53;;;21.00;97.90;;;;;;5050564;28;20472;-67
2022/06/11 00:40:06;;;;;;;8.60;5.50;;;20.90;99.00;;;;;;5047210;28;20805;-67
2022/06/11 00:42:34;;;;;;;8.60;5.10;;;20.80;99.60;;;;;;5047573;28;20456;-67
2022/06/11 00:45:22;;;;;;;8.13;4.90;;;20.80;99.90;;;;;;5051662;28;20922;-67
2022/06/11 00:47:52;;;;;;;10.17;5.40;;;20.80;99.90;;;;;;5046437;28;20868;-67
2022/06/11 00:50:23;;;;;;;5.90;4.80;;;20.80;99.90;;;;;;5047603;28;20465;-67
2022/06/11 00:52:50;;;;;;;7.83;5.70;;;20.80;99.90;;;;;;5053258;28;20454;-66
2022/06/11 00:55:28;;;;;;;7.70;4.90;;;20.70;99.90;;;;;;5048090;28;20468;-66
2022/06/11 00:58:03;;;;;;;6.30;4.67;;;20.70;99.90;;;;;;5046465;28;20958;-66
2022/06/11 01:00:39;;;;;;;9.27;5.07;;;20.50;99.90;;;;;;5048351;28;20453;-66
2022/06/11 01:03:05;;;;;;;11.10;4.60;;;20.50;99.90;;;;;;5046075;28;20469;-66
2022/06/11 01:05:35;;;;;;;6.30;5.03;;;20.50;99.90;;;;;;5052762;28;20435;-66
2022/06/11 01:08:27;;;;;;;6.70;5.27;;;20.50;99.90;;;;;;5047517;28;20430;-66
2022/06/11 01:11:30;;;;;;;10.60;5.40;;;20.60;99.90;;;;;;5047221;28;21045;-66
2022/06/11 01:14:26;;;;;;;5.77;4.77;;;20.50;99.90;;;;;;5038639;28;20445;-66
2022/06/11 01:17:07;;;;;;;6.37;5.20;;;20.40;99.90;;;;;;5049341;28;20437;-67
2022/06/11 01:20:07;;;;;;;7.67;4.80;;;20.40;99.90;;;;;;5053847;28;20981;-67
2022/06/11 01:22:51;;;;;;;7.70;5.30;;;20.40;99.90;;;;;;5035371;28;21519;-67
2022/06/11 01:25:24;;;;;;;7.17;4.83;;;20.40;99.90;;;;;;5031200;28;20443;-67
2022/06/11 01:28:09;;;;;;;8.20;4.90;;;20.40;99.90;;;;;;5035399;28;20974;-65
2022/06/11 01:31:16;;;;;;;5.50;5.00;;;20.30;99.90;;;;;;5032805;28;20474;-66
2022/06/11 01:34:09;;;;;;;5.53;5.03;;;20.30;99.90;;;;;;5035055;28;20869;-67
2022/06/11 01:36:41;;;;;;;5.60;4.80;;;20.30;99.90;;;;;;5036669;28;20434;-67
2022/06/11 01:39:38;;;;;;;6.67;5.13;;;20.30;99.90;;;;;;5034198;28;20434;-67
2022/06/11 01:42:12;;;;;;;10.27;4.77;;;20.30;99.90;;;;;;5046266;28;20550;-67
2022/06/11 01:44:42;;;;;;;5.40;4.77;;;20.30;99.90;;;;;;5035082;28;20446;-67
2022/06/11 01:47:12;;;;;;;5.07;4.57;;;20.20;99.90;;;;;;5034791;28;21205;-66
2022/06/11 01:49:43;;;;;;;6.40;4.80;;;20.20;99.90;;;;;;5032534;28;20547;-66
2022/06/11 01:52:20;;;;;;;5.13;4.63;;;20.10;99.90;;;;;;5036328;28;20627;-66
2022/06/11 01:55:38;;;;;;;10.53;4.50;;;20.10;99.90;;;;;;5039111;28;20438;-66
2022/06/11 01:58:30;;;;;;;5.17;4.70;;;20.00;99.90;;;;;;5016672;28;20436;-66
2022/06/11 02:01:24;;;;;;;7.53;4.80;;;20.00;99.90;;;;;;5036108;28;20847;-66
2022/06/11 02:03:59;;;;;;;5.47;4.83;;;19.90;99.90;;;;;;5033605;28;20465;-68
2022/06/11 02:06:51;;;;;;;7.23;5.40;;;19.70;99.90;;;;;;5034244;28;20443;-66
2022/06/11 02:09:32;;;;;;;5.63;5.10;;;19.60;99.90;;;;;;5039465;28;20473;-67
2022/06/11 02:12:11;;;;;;;6.53;5.30;;;19.40;99.90;;;;;;5016425;28;20458;-67
2022/06/11 02:15:13;;;;;;;8.63;5.70;;;19.20;99.90;;;;;;5032278;28;20446;-66
2022/06/11 02:17:43;;;;;;;6.57;5.90;;;19.10;99.90;;;;;;5032670;28;20457;-66
2022/06/11 02:20:41;;;;;;;9.93;5.43;;;19.20;99.90;;;;;;5036417;28;20838;-66
2022/06/11 02:23:17;;;;;;;7.37;5.10;;;19.20;99.90;;;;;;5028170;28;20478;-65
2022/06/11 02:25:47;;;;;;;6.00;4.53;;;19.20;99.90;;;;;;5035183;28;20509;-66
2022/06/11 02:28:16;;;;;;;4.70;4.30;;;19.10;99.90;;;;;;5035332;28;20538;-67
2022/06/11 02:30:45;;;;;;;5.97;4.93;;;19.10;99.90;;;;;;5032374;28;20481;-67
2022/06/11 02:33:13;;;;;;;7.03;5.13;;;18.90;99.90;;;;;;5033571;28;20500;-66
2022/06/11 02:35:52;;;;;;;5.90;4.70;;;18.60;99.90;;;;;;5033760;28;20431;-66
2022/06/11 02:38:23;;;;;;;5.10;4.10;;;18.60;99.90;;;;;;5033618;28;20527;-68
2022/06/11 02:41:02;;;;;;;6.30;4.47;;;18.80;99.90;;;;;;5031134;28;20457;-67
2022/06/11 02:43:29;;;;;;;6.17;4.50;;;18.60;99.90;;;;;;5037981;28;20462;-65
2022/06/11 02:45:55;;;;;;;5.20;4.60;;;18.50;99.90;;;;;;5037239;28;20439;-66
2022/06/11 02:48:21;;;;;;;5.33;4.77;;;18.50;99.90;;;;;;5021914;28;21478;-68
2022/06/11 02:50:47;;;;;;;13.07;4.87;;;18.50;99.90;;;;;;5035763;28;20523;-66
2022/06/11 02:53:14;;;;;;;4.67;4.20;;;18.40;99.90;;;;;;5034424;28;20553;-66
2022/06/11 02:55:41;;;;;;;6.53;4.20;;;18.30;99.90;;;;;;5034353;28;20464;-66
2022/06/11 02:58:08;;;;;;;7.33;4.20;;;18.20;99.90;;;;;;5048685;28;20920;-66
2022/06/11 03:00:39;;;;;;;9.03;5.90;;;18.10;99.90;;;;;;5032704;28;20453;-68
2022/06/11 03:03:06;;;;;;;11.10;4.30;;;18.10;99.90;;;;;;5032741;28;20490;-67
2022/06/11 03:05:34;;;;;;;5.37;3.77;;;18.30;99.90;;;;;;5035448;28;20893;-68
2022/06/11 03:08:01;;;;;;;5.40;4.47;;;18.40;99.90;;;;;;5032410;28;20937;-67
2022/06/11 03:10:28;;;;;;;6.83;4.10;;;18.30;99.90;;;;;;5032785;28;20478;-67
2022/06/11 03:12:55;;;;;;;5.10;4.17;;;18.30;99.90;;;;;;5036864;28;20829;-68
2022/06/11 03:15:22;;;;;;;5.30;4.10;;;18.40;99.90;;;;;;5031103;28;20450;-66
2022/06/11 03:17:49;;;;;;;5.03;4.13;;;18.40;99.90;;;;;;5035146;28;20497;-66
2022/06/11 03:20:16;;;;;;;7.43;4.20;;;18.30;99.90;;;;;;5035003;28;20435;-66
2022/06/11 03:22:42;;;;;;;4.40;3.70;;;18.40;99.90;;;;;;5034172;28;20473;-68
2022/06/11 03:25:09;;;;;;;4.27;3.87;;;18.30;99.90;;;;;;5034213;28;20934;-67
2022/06/11 03:27:36;;;;;;;5.20;4.10;;;18.40;99.90;;;;;;5035618;28;20459;-67
2022/06/11 03:30:03;;;;;;;4.70;4.00;;;18.20;99.90;;;;;;5032970;28;20478;-66
2022/06/11 03:32:29;;;;;;;5.07;4.63;;;18.10;99.90;;;;;;5033159;28;20465;-67
2022/06/11 03:34:54;;;;;;;6.10;4.17;;;18.20;99.90;;;;;;5033642;28;20768;-67
2022/06/11 03:37:20;;;;;;;5.00;3.87;;;18.30;99.90;;;;;;5037293;28;20191;-67
2022/06/11 03:39:46;;;;;;;4.50;4.00;;;18.20;99.90;;;;;;5036091;28;20183;-67
2022/06/11 03:42:13;;;;;;;5.93;4.00;;;18.30;99.90;;;;;;5034417;28;20480;-67
2022/06/11 03:44:39;;;;;;;5.20;4.70;;;18.10;99.90;;;;;;5021234;28;20195;-66
2022/06/11 03:47:05;;;;;;;4.77;3.80;;;18.00;99.90;;;;;;5032964;28;20445;-66
2022/06/11 03:49:31;;;;;;;6.27;4.13;;;18.10;99.90;;;;;;5030605;28;20471;-66
2022/06/11 03:51:56;;;;;;;7.93;4.10;;;18.00;99.90;;;;;;5034582;28;20985;-67
2022/06/11 03:54:22;;;;;;;3.93;3.47;;;18.20;99.90;;;;;;5030297;28;20202;-68
2022/06/11 03:56:50;;;;;;;5.03;4.50;;;18.20;99.90;;;;;;5033593;28;20195;-68
2022/06/11 03:59:16;;;;;;;4.87;3.90;;;18.20;99.90;;;;;;5034071;28;20207;-67
2022/06/11 04:01:44;;;;;;;4.50;4.10;;;18.30;99.90;;;;;;5033194;28;20548;-67
2022/06/11 04:04:13;;;;;;;5.90;4.23;;;18.20;99.90;;;;;;5031779;28;20496;-68
2022/06/11 04:06:47;;;;;;;4.77;4.33;;;18.20;99.90;;;;;;5030289;28;20595;-67
2022/06/11 04:09:21;;;;;;;6.83;4.23;;;18.30;99.90;;;;;;5030421;28;20876;-67
2022/06/11 04:11:47;;;;;;;4.33;3.93;;;18.40;99.90;;;;;;5034505;28;20455;-67
2022/06/11 04:14:12;;;;;;;6.63;3.87;;;18.40;99.90;;;;;;5032498;28;20434;-68
2022/06/11 04:16:49;;;;;;;6.17;4.10;;;18.40;99.90;;;;;;5031484;28;20489;-67
2022/06/11 04:19:19;;;;;;;5.13;3.90;;;18.30;99.90;;;;;;5033202;28;20226;-67
2022/06/11 04:21:47;;;;;;;5.83;4.10;;;18.30;99.90;;;;;;5032796;28;20458;-68
2022/06/11 04:24:13;;;;;;;9.13;4.30;;;18.30;99.90;;;;;;5031768;28;20430;-67
2022/06/11 04:26:47;;;;;;;5.33;3.90;;;18.30;99.90;;;;;;5032344;28;20446;-68
2022/06/11 04:29:16;;;;;;;5.13;4.50;;;18.40;99.90;;;;;;5033342;28;21030;-67
2022/06/11 04:31:42;;;;;;;7.13;4.40;;;18.40;99.90;;;;;;5033161;28;20470;-67
2022/06/11 04:34:09;;;;;;;4.53;3.97;;;18.30;99.90;;;;;;5032426;28;20823;-67
2022/06/11 04:36:35;;;;;;;4.87;4.27;;;18.40;99.90;;;;;;5032770;28;20447;-67
2022/06/11 04:39:02;;;;;;;5.13;4.40;;;18.50;99.90;;;;;;5032920;28;20901;-67
2022/06/11 04:41:27;;;;;;;9.17;4.53;;;18.60;99.90;;;;;;5032047;28;20553;-67
2022/06/11 04:43:53;;;;;;;8.20;3.80;;;18.60;99.90;;;;;;5036518;28;20487;-67
2022/06/11 04:46:20;;;;;;;4.70;4.30;;;18.60;99.90;;;;;;5031566;28;20206;-70
2022/06/11 04:48:46;;;;;;;6.43;4.37;;;18.50;99.90;;;;;;5032321;28;20462;-67
2022/06/11 04:51:13;;;;;;;4.17;3.77;;;18.60;99.90;;;;;;5036520;28;20946;-67
2022/06/11 04:53:40;;;;;;;5.43;4.27;;;18.60;99.90;;;;;;5030791;28;20470;-66
2022/06/11 04:56:07;;;;;;;5.03;3.90;;;18.50;99.90;;;;;;5035682;28;20588;-66
2022/06/11 04:58:33;;;;;;;5.33;4.30;;;18.30;99.90;;;;;;5037526;28;20525;-67
2022/06/11 05:00:59;;;;;;;4.27;3.87;;;18.30;99.90;;;;;;5036550;28;20932;-68
2022/06/11 05:03:24;;;;;;;7.37;3.70;;;18.20;99.90;;;;;;5036679;28;20552;-67
2022/06/11 05:05:50;;;;;;;5.53;4.00;;;18.30;99.90;;;;;;5039598;28;20446;-67
2022/06/11 05:08:16;;;;;;;4.70;4.30;;;18.40;99.90;;;;;;5035374;28;20626;-68
2022/06/11 05:10:44;;;;;;;6.30;3.80;;;18.50;99.90;;;;;;5034271;28;20227;-68
2022/06/11 05:13:11;;;;;;;4.93;3.80;;;18.60;99.90;;;;;;5031851;28;20460;-68
2022/06/11 05:15:46;;;;;;;5.27;3.93;;;18.50;99.90;;;;;;5035631;28;21207;-67
2022/06/11 05:18:14;;;;;;;7.13;4.27;;;18.50;99.90;;;;;;5034009;28;21037;-67
2022/06/11 05:20:40;;;;;;;5.80;4.17;;;18.60;99.90;;;;;;5034930;28;20524;-68
2022/06/11 05:23:06;;;;;;;5.37;3.97;;;18.60;99.90;;;;;;5036597;28;20466;-68
2022/06/11 05:25:34;;;;;;;4.50;4.00;;;18.60;99.90;;;;;;5036326;28;20816;-68
2022/06/11 05:28:00;;;;;;;6.10;4.10;;;18.60;99.90;;;;;;5031442;28;20446;-67
2022/06/11 05:30:29;;;;;;;6.17;4.40;;;18.60;99.90;;;;;;5030872;28;20930;-68
2022/06/11 05:32:56;;;;;;;4.80;3.83;;;18.50;99.90;;;;;;5035685;28;20201;-67
2022/06/11 05:35:25;;;;;;;9.33;4.27;;;18.50;99.90;;;;;;5036631;28;20538;-67
2022/06/11 05:37:53;;;;;;;5.03;4.10;;;18.50;99.90;;;;;;5032438;28;20534;-69
2022/06/11 05:40:23;;;;;;;6.10;4.53;;;18.50;99.90;;;;;;5034211;28;20573;-68
2022/06/11 05:42:48;;;;;;;11.30;4.20;;;18.70;99.90;;;;;;5035517;28;22079;-66
2022/06/11 05:45:17;;;;;;;4.83;4.03;;;18.60;99.90;;;;;;5034179;28;20450;-69
2022/06/11 05:47:44;;;;;;;6.20;3.87;;;18.70;99.90;;;;;;5033238;28;20184;-67
2022/06/11 05:50:15;;;;;;;11.73;4.10;;;18.70;99.90;;;;;;5033055;28;20523;-67
2022/06/11 05:52:45;;;;;;;6.67;4.10;;;18.70;99.90;;;;;;5035258;28;20498;-65
2022/06/11 05:55:18;;;;;;;5.10;4.30;;;18.80;99.90;;;;;;5034612;28;20872;-68
2022/06/11 05:57:47;;;;;;;4.23;3.80;;;18.80;99.90;;;;;;5037581;28;20447;-67
2022/06/11 06:00:16;;;;;;;4.87;4.00;;;18.70;99.90;;;;;;5036376;28;20438;-67
2022/06/11 06:02:44;;;;;;;4.80;3.50;;;18.80;99.90;;;;;;5036210;28;20447;-67
2022/06/11 06:05:13;;;;;;;9.30;4.20;;;18.80;99.90;;;;;;5030787;28;20458;-68
2022/06/11 06:07:38;;;;;;;6.30;3.90;;;18.90;99.90;;;;;;5031814;28;20531;-67
2022/06/11 06:10:04;;;;;;;4.20;3.80;;;18.90;99.90;;;;;;5018268;28;20475;-67
2022/06/11 06:12:32;;;;;;;5.30;4.00;;;19.10;99.90;;;;;;5032359;28;20572;-67
2022/06/11 06:15:10;;;;;;;5.80;4.40;;;19.10;99.90;;;;;;5035980;28;20438;-67
2022/06/11 06:17:37;;;;;;;7.10;5.07;;;19.20;99.90;;;;;;5029744;28;20809;-66
2022/06/11 06:20:05;;;;;;;4.23;3.83;;;19.30;99.90;;;;;;5037035;28;20847;-66
2022/06/11 06:22:30;;;;;;;7.23;3.80;;;19.30;99.90;;;;;;5034852;28;20520;-65
2022/06/11 06:24:56;;;;;;;5.57;4.00;;;19.20;99.90;;;;;;5031760;28;20438;-68
2022/06/11 06:27:21;;;;;;;7.00;4.40;;;19.20;99.90;;;;;;5032679;28;20250;-67
2022/06/11 06:29:47;;;;;;;7.20;4.03;;;19.20;99.90;;;;;;5034613;28;20240;-67
2022/06/11 06:32:13;;;;;;;10.03;4.20;;;19.30;99.90;;;;;;5045875;28;20551;-66
2022/06/11 06:34:38;;;;;;;5.53;4.07;;;19.30;99.90;;;;;;5036235;28;20237;-67
2022/06/11 06:37:04;;;;;;;4.77;3.90;;;19.40;99.90;;;;;;5034182;28;20188;-67
2022/06/11 06:39:30;;;;;;;5.27;3.67;;;19.30;99.90;;;;;;5034010;28;20192;-65
2022/06/11 06:41:55;;;;;;;4.63;3.93;;;19.30;99.90;;;;;;5030937;28;20299;-65
2022/06/11 06:44:21;;;;;;;8.87;3.70;;;19.50;99.90;;;;;;5032273;28;20441;-66
2022/06/11 06:46:47;;;;;;;7.33;3.73;;;19.40;99.90;;;;;;5031487;28;20259;-65
2022/06/11 06:49:12;;;;;;;6.30;4.27;;;19.60;99.90;;;;;;5033376;28;20200;-65
2022/06/11 06:51:38;;;;;;;3.93;3.53;;;19.60;99.90;;;;;;5031440;28;20243;-65
2022/06/11 06:54:04;;;;;;;4.37;3.30;;;19.70;99.90;;;;;;5035276;28;20276;-66
2022/06/11 06:56:33;;;;;;;4.90;4.20;;;19.90;99.90;;;;;;5038245;28;20186;-65
2022/06/11 06:59:05;;;;;;;7.97;6.30;;;19.90;99.90;;;;;;5021999;28;20189;-66
2022/06/11 07:01:32;;;;;;;5.50;4.50;;;20.00;99.90;;;;;;5038331;28;20437;-66
2022/06/11 07:03:59;;;;;;;4.10;3.70;;;19.90;99.90;;;;;;5037195;28;20514;-66
2022/06/11 07:06:25;;;;;;;10.13;8.17;;;20.00;99.90;;;;;;5031663;28;20437;-66
2022/06/11 07:08:53;;;;;;;13.00;7.60;;;20.10;99.90;;;;;;5034391;28;20802;-66
2022/06/11 07:11:19;;;;;;;11.03;7.83;;;20.20;99.90;;;;;;5037193;28;20510;-66
2022/06/11 07:13:45;;;;;;;4.30;3.90;;;20.30;99.90;;;;;;5035927;28;20437;-65
2022/06/11 07:16:13;;;;;;;8.07;4.27;;;20.40;99.90;;;;;;5035533;28;20441;-66
2022/06/11 07:18:46;;;;;;;4.80;3.67;;;20.30;99.90;;;;;;5033595;28;20304;-66
2022/06/11 07:21:26;;;;;;;6.57;5.97;;;20.40;99.90;;;;;;5035887;28;20438;-66
2022/06/11 07:23:57;;;;;;;7.93;4.67;;;20.60;99.90;;;;;;5037248;28;20426;-66
2022/06/11 07:26:34;;;;;;;6.53;3.70;;;20.70;99.90;;;;;;5034521;28;20438;-66
2022/06/11 07:29:11;;;;;;;5.30;3.53;;;20.80;99.90;;;;;;5036259;28;20466;-66
2022/06/11 07:31:38;;;;;;;4.00;3.43;;;20.90;99.90;;;;;;5034662;28;20446;-65
2022/06/11 07:34:05;;;;;;;3.63;3.23;;;20.90;99.90;;;;;;5020043;28;20435;-66
2022/06/11 07:36:30;;;;;;;8.70;3.77;;;21.00;99.90;;;;;;5034570;28;20474;-66
2022/06/11 07:38:56;;;;;;;7.47;3.70;;;21.20;99.90;;;;;;5031361;28;20541;-67
2022/06/11 07:41:22;;;;;;;4.60;3.57;;;21.20;99.90;;;;;;5036374;28;20306;-65
2022/06/11 07:43:47;;;;;;;5.50;3.33;;;21.30;99.90;;;;;;5036659;28;20181;-64
2022/06/11 07:46:13;;;;;;;7.67;4.40;;;21.30;99.90;;;;;;5036563;28;20278;-65
2022/06/11 07:48:40;;;;;;;7.33;5.50;;;21.30;99.90;;;;;;5034552;28;20314;-65
2022/06/11 07:51:05;;;;;;;11.33;9.67;;;21.30;99.90;;;;;;5037289;28;20230;-68
2022/06/11 07:53:32;;;;;;;5.90;4.20;;;21.40;99.90;;;;;;5018628;28;21033;-67
2022/06/11 07:55:57;;;;;;;6.70;4.00;;;21.40;99.90;;;;;;5033613;28;20183;-67
2022/06/11 07:58:30;;;;;;;4.77;3.40;;;21.60;99.90;;;;;;5028633;28;20509;-66
2022/06/11 08:00:57;;;;;;;4.63;3.70;;;21.80;99.90;;;;;;5031129;28;20526;-66
2022/06/11 08:03:23;;;;;;;5.80;4.00;;;21.90;99.90;;;;;;5033709;28;20454;-66
2022/06/11 08:05:51;;;;;;;4.63;4.23;;;21.90;99.90;;;;;;5029748;28;20486;-67
2022/06/11 08:08:19;;;;;;;7.67;3.33;;;22.10;99.90;;;;;;5035789;28;20477;-67
2022/06/11 08:10:45;;;;;;;8.50;4.17;;;22.00;99.90;;;;;;5027039;28;20557;-67
2022/06/11 08:13:12;;;;;;;9.47;3.90;;;22.10;99.90;;;;;;5011685;28;20545;-67
2022/06/11 08:15:39;;;;;;;9.87;3.33;;;22.10;99.90;;;;;;5030045;28;20438;-65
2022/06/11 08:18:06;;;;;;;6.00;3.53;;;22.10;99.90;;;;;;5010934;28;20438;-67
2022/06/11 08:20:33;;;;;;;6.80;3.73;;;22.20;99.90;;;;;;5033370;28;20493;-66
2022/06/11 08:22:59;;;;;;;20.80;16.90;;;22.20;99.90;;;;;;5042939;28;20463;-66
2022/06/11 08:25:25;;;;;;;6.87;3.43;;;22.30;99.90;;;;;;5028343;28;20434;-66
2022/06/11 08:27:51;;;;;;;4.47;4.00;;;22.40;99.90;;;;;;5030300;28;20211;-66
2022/06/11 08:30:20;;;;;;;5.90;3.70;;;22.50;99.90;;;;;;5028611;28;20553;-66
2022/06/11 08:32:46;;;;;;;6.80;3.20;;;22.60;99.90;;;;;;5037626;28;20443;-66
2022/06/11 08:35:13;;;;;;;6.30;3.67;;;22.70;99.90;;;;;;5035824;28;20562;-66
2022/06/11 08:37:39;;;;;;;4.20;3.40;;;22.80;99.90;;;;;;5029883;28;20466;-67
2022/06/11 08:40:07;;;;;;;8.40;3.30;;;22.80;99.90;;;;;;5032750;28;20786;-66
2022/06/11 08:42:43;;;;;;;8.33;3.70;;;22.90;99.90;;;;;;5033932;28;20238;-66
2022/06/11 08:45:17;;;;;;;6.83;4.27;;;22.90;99.90;;;;;;5036945;28;20437;-66
2022/06/11 08:47:51;;;;;;;5.00;3.53;;;23.00;99.90;;;;;;5032106;28;20443;-66
2022/06/11 08:50:23;;;;;;;5.23;3.70;;;23.20;99.90;;;;;;5030955;28;21093;-66
2022/06/11 08:52:50;;;;;;;5.37;3.47;;;23.10;99.90;;;;;;5031534;28;20455;-66
2022/06/11 08:55:18;;;;;;;5.80;4.27;;;23.10;99.90;;;;;;5034870;28;20434;-67
2022/06/11 08:58:01;;;;;;;5.27;3.50;;;23.20;99.90;;;;;;5035093;28;20452;-67
2022/06/11 09:01:04;;;;;;;4.80;3.10;;;23.30;99.90;;;;;;5047079;28;20526;-67
2022/06/11 09:03:38;;;;;;;6.90;3.73;;;23.40;99.90;;;;;;5034100;28;20460;-67
2022/06/11 09:06:39;;;;;;;5.93;3.13;;;23.50;99.90;;;;;;5033562;28;22510;-67
2022/06/11 09:09:44;;;;;;;5.83;3.10;;;23.50;99.90;;;;;;5014076;28;21204;-66
2022/06/11 09:12:17;;;;;;;6.00;3.30;;;23.70;99.90;;;;;;5032836;28;20492;-66
2022/06/11 09:15:17;;;;;;;5.03;3.50;;;23.80;99.90;;;;;;5034505;28;20434;-66
2022/06/11 09:18:01;;;;;;;3.80;3.07;;;23.80;99.90;;;;;;5031756;28;20439;-66
2022/06/11 09:20:41;;;;;;;4.50;3.03;;;23.80;99.90;;;;;;5033287;28;20516;-65
2022/06/11 09:23:07;;;;;;;5.50;2.80;;;23.80;99.90;;;;;;5037963;28;20458;-65
2022/06/11 09:25:40;;;;;;;6.33;3.10;;;24.00;99.90;;;;;;5032303;28;20461;-65
2022/06/11 09:28:08;;;;;;;4.40;3.20;;;24.00;99.90;;;;;;5032729;28;20623;-65
2022/06/11 09:30:40;;;;;;;4.50;3.50;;;24.10;99.90;;;;;;5030118;28;20471;-65
2022/06/11 09:33:16;;;;;;;3.80;3.20;;;24.10;99.90;;;;;;5031870;28;20506;-65
2022/06/11 09:35:50;;;;;;;4.17;3.77;;;24.20;99.90;;;;;;5035515;28;20438;-65
2022/06/11 09:38:37;;;;;;;4.83;3.07;;;24.10;99.90;;;;;;5032091;28;20423;-65
2022/06/11 09:41:08;;;;;;;4.03;2.57;;;24.30;98.70;;;;;;5030085;28;20461;-66
2022/06/11 09:43:56;;;;;;;4.13;2.97;;;24.30;98.90;;;;;;5033049;28;20469;-66
2022/06/11 09:46:35;;;;;;;4.37;2.70;;;24.40;98.50;;;;;;5020628;28;20562;-65
2022/06/11 09:49:19;;;;;;;3.40;2.70;;;24.40;98.30;;;;;;5032105;28;20435;-65
2022/06/11 09:52:07;;;;;;;5.23;2.90;;;24.40;98.40;;;;;;5044650;28;21340;-65
2022/06/11 09:54:54;;;;;;;4.00;2.80;;;24.60;97.50;;;;;;5034329;28;20801;-65
2022/06/11 09:57:50;;;;;;;4.73;3.03;;;24.50;97.50;;;;;;5028520;28;20434;-66
2022/06/11 10:00:29;;;;;;;4.90;2.43;;;24.60;97.40;;;;;;5032524;28;20804;-65
2022/06/11 10:03:02;;;;;;;3.50;2.73;;;24.70;96.20;;;;;;5031099;28;20954;-65
2022/06/11 10:05:45;;;;;;;3.63;3.30;;;24.90;96.90;;;;;;5033985;28;20425;-67
2022/06/11 10:08:44;;;;;;;9.77;2.90;;;24.90;96.30;;;;;;5031643;28;20509;-65
2022/06/11 10:11:20;;;;;;;4.70;3.27;;;25.00;95.70;;;;;;5032924;28;20434;-68
2022/06/11 10:14:42;;;;;;;4.97;3.23;;;25.00;95.40;;;;;;5020406;28;20974;-66
2022/06/11 10:17:19;;;;;;;3.93;2.70;;;25.00;95.10;;;;;;5030159;28;20490;-66
2022/06/11 10:20:08;;;;;;;5.17;3.60;;;25.00;95.90;;;;;;5043230;28;20446;-66
2022/06/11 10:22:42;;;;;;;3.20;2.67;;;25.10;96.40;;;;;;5028886;28;20465;-66
2022/06/11 10:25:28;;;;;;;4.93;3.17;;;25.20;95.00;;;;;;5032057;28;20451;-66
2022/06/11 10:28:17;;;;;;;4.80;2.50;;;25.30;94.60;;;;;;5032135;28;21028;-66
2022/06/11 10:31:02;;;;;;;3.90;2.90;;;25.30;93.80;;;;;;5045231;28;20843;-66
2022/06/11 10:33:43;;;;;;;4.73;3.23;;;25.30;93.80;;;;;;5030786;28;20509;-66
2022/06/11 10:36:19;;;;;;;5.40;2.73;;;25.30;93.90;;;;;;5033674;28;20525;-65
2022/06/11 10:39:02;;;;;;;7.93;2.90;;;25.30;94.00;;;;;;5030012;28;20511;-67
2022/06/11 10:41:56;;;;;;;3.60;2.50;;;25.50;93.90;;;;;;5032827;28;20430;-66
2022/06/11 10:44:37;;;;;;;4.27;2.80;;;25.60;93.40;;;;;;5032577;28;20471;-66
2022/06/11 10:47:41;;;;;;;4.83;2.77;;;25.60;92.50;;;;;;5030334;28;20473;-66
2022/06/11 10:50:09;;;;;;;5.63;2.60;;;25.60;92.10;;;;;;5031556;28;21088;-65
2022/06/11 10:52:49;;;;;;;5.77;2.77;;;25.70;92.50;;;;;;5018664;28;20461;-66
2022/06/11 10:55:32;;;;;;;4.50;2.60;;;25.80;92.60;;;;;;5033502;28;20984;-65
2022/06/11 10:58:08;;;;;;;2.73;2.50;;;25.80;92.10;;;;;;5029572;28;20452;-65
2022/06/11 11:00:44;;;;;;;3.87;2.53;;;25.80;91.30;;;;;;5029424;28;20442;-66
2022/06/11 11:03:23;;;;;;;5.80;3.30;;;25.90;91.60;;;;;;5042817;28;21191;-65
2022/06/11 11:05:59;;;;;;;5.03;3.27;;;26.00;91.50;;;;;;5029694;28;20935;-65
2022/06/11 11:08:25;;;;;;;3.63;2.67;;;26.00;90.40;;;;;;5030774;28;20800;-66
2022/06/11 11:10:54;;;;;;;4.23;2.60;;;26.20;90.50;;;;;;5026941;28;20463;-67
2022/06/11 11:13:34;;;;;;;2.87;2.57;;;26.20;90.50;;;;;;5031742;28;20464;-67
2022/06/11 11:16:06;;;;;;;3.67;2.33;;;26.30;90.10;;;;;;5030923;28;20807;-67
2022/06/11 11:18:44;;;;;;;3.50;2.70;;;26.40;88.70;;;;;;5028816;28;20473;-67
2022/06/11 11:21:24;;;;;;;5.47;2.93;;;26.50;88.50;;;;;;5031235;28;21081;-66
2022/06/11 11:23:51;;;;;;;3.83;2.63;;;26.60;88.20;;;;;;5032578;28;20435;-67
2022/06/11 11:26:35;;;;;;;3.93;2.67;;;26.60;88.20;;;;;;5017046;28;20945;-67
2022/06/11 11:29:21;;;;;;;5.27;3.40;;;26.70;86.90;;;;;;5014519;28;20435;-67
2022/06/11 11:31:57;;;;;;;5.23;3.90;;;26.80;87.60;;;;;;5029053;28;20459;-67
2022/06/11 11:34:29;;;;;;;3.33;2.40;;;27.00;85.60;;;;;;5028672;28;20430;-66
2022/06/11 11:37:16;;;;;;;2.80;2.37;;;27.20;86.70;;;;;;5032933;28;20439;-66
2022/06/11 11:40:02;;;;;;;4.03;2.50;;;27.10;84.20;;;;;;5032680;28;20439;-66
2022/06/11 11:42:36;;;;;;;3.30;2.27;;;27.20;83.80;;;;;;5032811;28;22177;-67
2022/06/11 11:45:24;;;;;;;4.40;2.90;;;27.30;82.90;;;;;;5030848;28;20445;-66
2022/06/11 11:47:53;;;;;;;3.20;2.63;;;27.60;81.90;;;;;;5041922;28;20993;-67
2022/06/11 11:50:33;;;;;;;2.70;2.20;;;27.90;81.70;;;;;;5020180;28;20473;-67
2022/06/11 11:53:15;;;;;;;6.07;2.70;;;28.10;79.80;;;;;;5032970;28;20470;-67
2022/06/11 11:55:52;;;;;;;2.73;2.13;;;28.40;79.10;;;;;;5031618;28;20484;-67
2022/06/11 11:58:22;;;;;;;4.07;2.80;;;28.40;78.70;;;;;;5028253;28;20439;-66
2022/06/11 12:00:59;;;;;;;5.20;2.90;;;28.80;76.90;;;;;;5029771;28;21160;-67
2022/06/11 12:03:52;;;;;;;3.83;2.60;;;29.60;75.80;;;;;;5030596;28;21135;-67
2022/06/11 12:06:32;;;;;;;4.87;2.83;;;31.00;69.40;;;;;;5030919;28;20529;-65
2022/06/11 12:08:59;;;;;;;2.10;1.90;;;32.40;67.40;;;;;;5030445;28;20628;-66
2022/06/11 12:11:27;;;;;;;3.40;2.63;;;34.80;62.80;;;;;;5030280;28;21215;-65
2022/06/11 12:14:00;;;;;;;3.60;2.47;;;37.00;56.40;;;;;;5030036;28;20447;-66
2022/06/11 12:16:29;;;;;;;3.30;2.40;;;37.80;52.00;;;;;;5032112;28;20913;-66
2022/06/11 12:19:33;;;;;;;2.80;2.47;;;39.40;49.00;;;;;;5035693;28;20401;-66
2022/06/11 12:22:30;;;;;;;3.07;2.87;;;39.20;46.70;;;;;;5034585;28;20463;-66
2022/06/11 12:24:57;;;;;;;4.00;2.50;;;40.20;44.70;;;;;;4979119;28;20918;-66
2022/06/11 12:27:41;;;;;;;3.13;2.63;;;41.30;42.40;;;;;;5032940;28;20464;-64
2022/06/11 12:30:21;;;;;;;3.73;2.20;;;40.30;41.20;;;;;;5031567;28;20958;-65
2022/06/11 12:32:47;;;;;;;4.97;2.63;;;39.40;40.40;;;;;;5033325;28;20437;-65
2022/06/11 12:35:16;;;;;;;3.70;2.67;;;39.00;41.70;;;;;;5030716;28;20419;-65
2022/06/11 12:38:03;;;;;;;4.17;2.30;;;40.40;40.40;;;;;;5035807;28;20238;-67
2022/06/11 12:40:38;;;;;;;3.13;2.10;;;40.80;40.00;;;;;;5034189;28;21000;-66
2022/06/11 12:43:22;;;;;;;3.77;2.60;;;39.40;38.90;;;;;;5020240;28;20962;-67
2022/06/11 12:46:15;;;;;;;4.20;2.40;;;39.30;39.60;;;;;;5030687;28;20446;-67
2022/06/11 12:48:48;;;;;;;2.90;2.30;;;40.10;39.10;;;;;;5034251;28;20441;-66
2022/06/11 12:51:22;;;;;;;2.77;2.50;;;40.70;37.70;;;;;;5032098;28;20470;-67
2022/06/11 12:53:55;;;;;;;2.87;2.57;;;41.90;37.60;;;;;;5031531;28;20827;-66
2022/06/11 12:56:40;;;;;;;3.47;2.60;;;41.10;37.60;;;;;;5032251;28;20429;-67
2022/06/11 12:59:46;;;;;;;3.03;2.73;;;41.70;36.60;;;;;;5038802;28;20440;-67
2022/06/11 13:02:12;;;;;;;3.90;2.60;;;41.60;36.30;;;;;;5035745;28;20456;-67
2022/06/11 13:04:46;;;;;;;4.67;2.83;;;41.60;36.30;;;;;;5034331;28;20427;-67
2022/06/11 13:07:54;;;;;;;5.93;2.63;;;42.10;36.20;;;;;;5035315;28;20376;-66
2022/06/11 13:10:43;;;;;;;2.90;2.60;;;40.30;37.30;;;;;;5032562;28;20498;-66
2022/06/11 13:13:17;;;;;;;3.63;3.00;;;40.20;36.40;;;;;;5032001;28;20446;-66
2022/06/11 13:16:20;;;;;;;2.60;2.37;;;40.10;36.10;;;;;;5031306;28;20433;-66
2022/06/11 13:19:06;;;;;;;5.00;3.10;;;40.40;37.10;;;;;;5010716;28;20435;-66